Airport View

Enter AWOS ICAO identifier for current METAR.

ex. KFNL

KUCY 250535Z AUTO 20006KT 10SM CLR 11/00 A2986 RMK A01

25 Nov 2017 05:47

Frequency: 135.325

Phone: 731-885-9161

Other Area AWOS: KPHT - KM25 - KDYR - KHZD

TAF KPAH 242328Z 2500/2524 21006KT P6SM SCT120 BKN200 FM251300 32008KT P6SM SCT200 FM251700 35010KT P6SM SKC